| time (UTC) | temp F | wind direction | speed MPH | gust MPH | rain 1hr in | rain 24hr in | rain mn in | humidity % | barometer mb |
| 20260506210128 | 70 | 214 | 3.0 | 14.0 | 0.00 | 0.00 | 0.00 | 27 | 1012.4 |
| 20260506204624 | 71 | 148 | 2.0 | 8.0 | 0.00 | 0.00 | 0.00 | 27 | 1012.4 |
| 20260506203121 | 70 | 172 | 3.0 | 13.0 | 0.00 | 0.00 | 0.00 | 28 | 1012.4 |
| 20260506201618 | 73 | 147 | 3.0 | 11.0 | 0.00 | 0.00 | 0.00 | 27 | 1012.1 |
| 20260506200114 | 74 | 115 | 2.0 | 11.0 | 0.00 | 0.00 | 0.00 | 28 | 1012.1 |
| 20260506194610 | 73 | 167 | 2.0 | 10.0 | 0.00 | 0.00 | 0.00 | 29 | 1012.1 |
| 20260506193108 | 73 | 178 | 2.0 | 8.0 | 0.00 | 0.00 | 0.00 | 30 | 1012.4 |
| 20260506191603 | 73 | 92 | 2.0 | 7.0 | 0.00 | 0.00 | 0.00 | 32 | 1012.4 |
| 20260506190059 | 73 | 131 | 2.0 | 9.0 | 0.00 | 0.00 | 0.00 | 32 | 1012.1 |
| 20260506184556 | 72 | 171 | 2.0 | 12.0 | 0.00 | 0.00 | 0.00 | 35 | 1012.4 |
| 20260506183051 | 70 | 139 | 3.0 | 12.0 | 0.00 | 0.00 | 0.00 | 39 | 1012.1 |
| 20260506181550 | 69 | 152 | 3.0 | 10.0 | 0.00 | 0.00 | 0.00 | 42 | 1012.4 |
| 20260506180046 | 68 | 149 | 3.0 | 10.0 | 0.00 | 0.00 | 0.00 | 44 | 1012.4 |
| 20260506174543 | 67 | 125 | 2.0 | 10.0 | 0.00 | 0.00 | 0.00 | 47 | 1012.4 |
| 20260506173039 | 66 | 144 | 2.0 | 8.0 | 0.00 | 0.00 | 0.00 | 47 | 1012.4 |
| 20260506171536 | 66 | 158 | 1.0 | 6.0 | 0.00 | 0.00 | 0.00 | 48 | 1012.9 |
| 20260506170035 | 64 | 180 | 1.0 | 6.0 | 0.00 | 0.00 | 0.00 | 49 | 1012.9 |
| 20260506164532 | 63 | 179 | 1.0 | 9.0 | 0.00 | 0.00 | 0.00 | 51 | 1012.9 |
| 20260506163027 | 61 | 140 | 2.0 | 7.0 | 0.00 | 0.00 | 0.00 | 53 | 1013.2 |
| 20260506161524 | 58 | 137 | 3.0 | 6.0 | 0.00 | 0.00 | 0.00 | 55 | 1013.5 |
| 20260506155116 | 57 | 129 | 3.0 | 7.0 | 0.00 | 0.00 | 0.00 | 56 | 1013.5 |
| 20260506153016 | 57 | 129 | 3.0 | 7.0 | 0.00 | 0.00 | 0.00 | 56 | 1013.5 |
| 20260506151514 | 56 | 143 | 1.0 | 5.0 | 0.00 | 0.00 | 0.00 | 57 | 1013.5 |
| 20260506150011 | 55 | 193 | 0.0 | 2.0 | 0.00 | 0.00 | 0.00 | 59 | 1013.5 |
| 20260506144507 | 54 | 193 | 0.0 | 1.0 | 0.00 | 0.00 | 0.00 | 60 | 1013.5 |
| 20260506143006 | 53 | 235 | 0.0 | 3.0 | 0.00 | 0.00 | 0.00 | 60 | 1013.5 |
| 20260506141505 | 53 | 235 | 0.0 | 3.0 | 0.00 | 0.00 | 0.00 | 60 | 1013.5 |
| 20260506140003 | 51 | 217 | 0.0 | 4.0 | 0.00 | 0.00 | 0.00 | 61 | 1013.5 |
| 20260506134458 | 51 | 187 | 0.0 | 0.0 | 0.00 | 0.00 | 0.00 | 60 | 1013.2 |
| 20260506132954 | 52 | 187 | 0.0 | 4.0 | 0.00 | 0.00 | 0.00 | 59 | 1013.2 |
| 20260506131450 | 51 | 187 | 0.0 | 0.0 | 0.00 | 0.00 | 0.00 | 59 | 1013.2 |
| 20260506125948 | 52 | 187 | 0.0 | 2.0 | 0.00 | 0.00 | 0.00 | 58 | 1013.2 |
| 20260506124447 | 52 | 187 | 0.0 | 2.0 | 0.00 | 0.00 | 0.00 | 58 | 1013.2 |
| 20260506122946 | 52 | 187 | 0.0 | 2.0 | 0.00 | 0.00 | 0.00 | 57 | 1013.2 |
| 20260506121443 | 52 | 187 | 0.0 | 0.0 | 0.00 | 0.00 | 0.00 | 57 | 1012.9 |
| 20260506115941 | 52 | 187 | 0.0 | 0.0 | 0.00 | 0.00 | 0.00 | 57 | 1012.9 |
| 20260506114440 | 52 | 187 | 0.0 | 0.0 | 0.00 | 0.00 | 0.00 | 57 | 1012.9 |
| 20260506112937 | 53 | 187 | 0.0 | 0.0 | 0.00 | 0.00 | 0.00 | 56 | 1012.9 |
| 20260506111436 | 53 | 187 | 0.0 | 1.0 | 0.00 | 0.00 | 0.00 | 55 | 1012.9 |
| 20260506105933 | 53 | 187 | 0.0 | 0.0 | 0.00 | 0.00 | 0.00 | 55 | 1012.4 |
| 20260506104431 | 54 | 187 | 0.0 | 0.0 | 0.00 | 0.00 | 0.00 | 55 | 1012.4 |
| 20260506102928 | 53 | 194 | 0.0 | 3.0 | 0.00 | 0.00 | 0.00 | 56 | 1012.4 |
| 20260506101426 | 53 | 0 | 0.0 | 2.0 | 0.00 | 0.00 | 0.00 | 56 | 1012.4 |
| 20260506095925 | 54 | 0 | 1.0 | 3.0 | 0.00 | 0.00 | 0.00 | 54 | 1012.4 |
| 20260506094424 | 54 | 246 | 0.0 | 5.0 | 0.00 | 0.00 | 0.00 | 53 | 1012.4 |
| 20260506092922 | 55 | 216 | 0.0 | 4.0 | 0.00 | 0.00 | 0.00 | 53 | 1012.4 |
| 20260506091420 | 55 | 216 | 0.0 | 3.0 | 0.00 | 0.00 | 0.00 | 53 | 1012.4 |
| 20260506085917 | 54 | 216 | 0.0 | 0.0 | 0.00 | 0.00 | 0.00 | 56 | 1012.4 |
| 20260506084413 | 54 | 216 | 0.0 | 2.0 | 0.00 | 0.00 | 0.00 | 56 | 1012.4 |
| 20260506082910 | 54 | 216 | 0.0 | 2.0 | 0.00 | 0.00 | 0.00 | 57 | 1012.9 |
| 20260506081407 | 54 | 216 | 0.0 | 5.0 | 0.00 | 0.00 | 0.00 | 58 | 1012.4 |
| 20260506072859 | 54 | 216 | 0.0 | 0.0 | 0.00 | 0.00 | 0.00 | 58 | 1012.4 |
| 20260506071358 | 55 | 216 | 0.0 | 0.0 | 0.00 | 0.00 | 0.00 | 54 | 1012.4 |
| 20260506061344 | 56 | 216 | 0.0 | 0.0 | 0.00 | 0.00 | 0.00 | 51 | 1012.1 |
| 20260506051336 | 58 | 231 | 0.0 | 6.0 | 0.00 | 0.00 | 0.00 | 48 | 1012.1 |
| 20260506044330 | 59 | 253 | 0.0 | 4.0 | 0.00 | 0.00 | 0.00 | 45 | 1012.1 |
| 20260506042829 | 59 | 244 | 1.0 | 6.0 | 0.00 | 0.00 | 0.00 | 45 | 1012.1 |
| 20260506041328 | 59 | 251 | 1.0 | 7.0 | 0.00 | 0.00 | 0.00 | 44 | 1012.1 |
| 20260506035825 | 60 | 183 | 0.0 | 4.0 | 0.00 | 0.00 | 0.00 | 44 | 1011.6 |
| 20260506034322 | 60 | 193 | 0.0 | 4.0 | 0.00 | 0.00 | 0.00 | 42 | 1011.6 |
| 20260506032819 | 61 | 236 | 0.0 | 4.0 | 0.00 | 0.00 | 0.00 | 41 | 1011.3 |
| 20260506031316 | 63 | 239 | 0.0 | 5.0 | 0.00 | 0.00 | 0.00 | 39 | 1011.3 |
| 20260506025813 | 64 | 252 | 0.0 | 6.0 | 0.00 | 0.00 | 0.00 | 37 | 1010.9 |
| 20260506024309 | 65 | 260 | 1.0 | 9.0 | 0.00 | 0.00 | 0.00 | 36 | 1010.9 |
| 20260506022805 | 66 | 209 | 0.0 | 7.0 | 0.00 | 0.00 | 0.00 | 35 | 1010.9 |
| 20260506021303 | 68 | 249 | 1.0 | 9.0 | 0.00 | 0.00 | 0.00 | 34 | 1010.9 |
| 20260506015801 | 68 | 246 | 1.0 | 6.0 | 0.00 | 0.00 | 0.00 | 33 | 1010.5 |
| 20260506014257 | 69 | 227 | 2.0 | 11.0 | 0.00 | 0.00 | 0.00 | 32 | 1010.5 |
| 20260506012753 | 70 | 204 | 1.0 | 6.0 | 0.00 | 0.00 | 0.00 | 32 | 1010.1 |
| 20260506011249 | 71 | 185 | 1.0 | 11.0 | 0.00 | 0.00 | 0.00 | 31 | 1009.7 |
| 20260506005748 | 71 | 54 | 1.0 | 7.0 | 0.00 | 0.00 | 0.00 | 31 | 1009.7 |
| 20260506004244 | 72 | 130 | 2.0 | 9.0 | 0.00 | 0.00 | 0.00 | 31 | 1009.7 |
| 20260506002744 | 72 | 90 | 2.0 | 6.0 | 0.00 | 0.00 | 0.00 | 33 | 1009.7 |
| 20260506001240 | 72 | 145 | 4.0 | 10.0 | 0.00 | 0.00 | 0.00 | 33 | 1009.7 |
| 20260505235737 | 76 | 212 | 1.0 | 7.0 | 0.00 | 0.00 | 0.00 | 30 | 1009.7 |
| 20260505234235 | 74 | 102 | 1.0 | 5.0 | 0.00 | 0.00 | 0.00 | 31 | 1009.7 |
| 20260505232732 | 74 | 112 | 0.0 | 4.0 | 0.00 | 0.00 | 0.00 | 31 | 1009.7 |
| 20260505231231 | 75 | 120 | 2.0 | 9.0 | 0.00 | 0.00 | 0.00 | 31 | 1009.7 |
| 20260505225727 | 74 | 25 | 1.0 | 5.0 | 0.00 | 0.00 | 0.00 | 32 | 1009.7 |
| 20260505224223 | 74 | 114 | 4.0 | 10.0 | 0.00 | 0.00 | 0.00 | 33 | 1010.1 |
| 20260505222719 | 75 | 123 | 2.0 | 6.0 | 0.00 | 0.00 | 0.00 | 34 | 1010.1 |
| 20260505221215 | 71 | 119 | 4.0 | 6.0 | 0.00 | 0.00 | 0.00 | 38 | 1010.5 |
| 20260505215713 | 75 | 121 | 3.0 | 9.0 | 0.00 | 0.00 | 0.00 | 35 | 1010.5 |
| 20260505214212 | 73 | 142 | 2.0 | 6.0 | 0.00 | 0.00 | 0.00 | 38 | 1010.9 |
| 20260505212708 | 74 | 117 | 3.0 | 7.0 | 0.00 | 0.00 | 0.00 | 35 | 1010.9 |